createdAt,value
2023-04-30T00:01:56.730Z,10.01
2023-04-30T00:04:23.345Z,10.01
2023-04-30T00:06:49.901Z,9.95
2023-04-30T00:09:16.423Z,9.99
2023-04-30T00:11:42.979Z,9.93
2023-04-30T00:14:10.126Z,9.94
2023-04-30T00:16:36.637Z,9.86
2023-04-30T00:19:03.251Z,9.91
2023-04-30T00:21:29.723Z,9.84
2023-04-30T00:23:56.243Z,9.87
2023-04-30T00:26:22.827Z,9.82
2023-04-30T00:28:49.298Z,9.87
2023-04-30T00:31:15.787Z,9.89
2023-04-30T00:33:42.482Z,9.79
2023-04-30T00:36:08.946Z,9.83
2023-04-30T00:38:35.446Z,9.71
2023-04-30T00:41:02.089Z,9.76
2023-04-30T00:43:28.620Z,9.72
2023-04-30T00:45:55.435Z,9.75
2023-04-30T00:48:22.041Z,9.81
2023-04-30T00:50:48.516Z,9.77
2023-04-30T00:53:14.968Z,9.77
2023-04-30T00:55:41.614Z,9.73
2023-04-30T00:58:08.131Z,9.77
2023-04-30T01:00:34.676Z,9.76
2023-04-30T01:03:01.520Z,9.73
2023-04-30T01:05:28.068Z,9.71
2023-04-30T01:07:55.032Z,9.72
2023-04-30T01:10:21.587Z,9.68
2023-04-30T01:13:11.719Z,9.67
2023-04-30T01:15:46.296Z,9.67
2023-04-30T01:18:23.236Z,9.61
2023-04-30T01:20:53.120Z,9.54
2023-04-30T01:23:34.853Z,9.58
2023-04-30T01:26:01.515Z,9.56
2023-04-30T01:28:28.083Z,9.55
2023-04-30T01:30:54.675Z,9.59
2023-04-30T01:33:21.170Z,9.62
2023-04-30T01:36:02.828Z,9.60
2023-04-30T01:38:58.365Z,9.61
2023-04-30T01:41:30.574Z,9.51
2023-04-30T01:44:29.369Z,9.56
2023-04-30T01:47:07.819Z,9.48
2023-04-30T01:49:57.172Z,9.51
2023-04-30T01:52:34.319Z,9.45
2023-04-30T01:55:03.230Z,9.46
2023-04-30T01:57:33.862Z,9.42
2023-04-30T02:00:00.560Z,9.44
2023-04-30T02:02:27.117Z,9.51
2023-04-30T02:04:53.640Z,9.48
2023-04-30T02:07:45.038Z,9.48
2023-04-30T02:10:14.575Z,9.39
2023-04-30T02:12:41.139Z,9.46
2023-04-30T02:15:08.332Z,9.45
2023-04-30T02:17:34.870Z,9.43
2023-04-30T02:20:01.377Z,9.47
2023-04-30T02:22:27.967Z,9.48
2023-04-30T02:24:55.736Z,9.40
2023-04-30T02:27:23.718Z,9.38
2023-04-30T02:29:50.272Z,9.37
2023-04-30T02:32:16.861Z,9.39
2023-04-30T02:34:43.439Z,9.41
2023-04-30T02:37:09.958Z,9.37
2023-04-30T02:39:36.412Z,9.37
2023-04-30T02:42:02.971Z,9.37
2023-04-30T02:44:29.501Z,9.33
2023-04-30T02:46:56.008Z,9.24
2023-04-30T02:49:22.514Z,9.29
2023-04-30T02:51:49.038Z,9.29
2023-04-30T02:54:15.510Z,9.35
2023-04-30T02:56:42.369Z,9.30
2023-04-30T02:59:08.968Z,9.35
2023-04-30T03:01:35.443Z,9.34
2023-04-30T03:04:03.734Z,9.38
2023-04-30T03:06:31.273Z,9.41
2023-04-30T03:08:57.934Z,9.33
2023-04-30T03:11:24.512Z,9.37
2023-04-30T03:13:51.763Z,9.39
2023-04-30T03:16:19.155Z,9.37
2023-04-30T03:18:46.407Z,9.35
2023-04-30T03:21:12.868Z,9.29
2023-04-30T03:23:39.376Z,9.25
2023-04-30T03:26:06.105Z,9.23
2023-04-30T03:28:32.742Z,9.24
2023-04-30T03:30:59.515Z,9.06
2023-04-30T03:33:26.020Z,9.01
2023-04-30T03:35:53.445Z,8.98
2023-04-30T03:38:19.958Z,9.02
2023-04-30T03:40:46.720Z,9.05
2023-04-30T03:43:13.257Z,9.01
2023-04-30T03:45:39.723Z,9.03
2023-04-30T03:48:06.298Z,9.02
2023-04-30T03:50:33.518Z,8.80
2023-04-30T03:53:00.000Z,8.85
2023-04-30T03:55:26.459Z,8.91
2023-04-30T03:57:52.998Z,8.93
2023-04-30T04:00:19.688Z,9.03
2023-04-30T04:02:46.159Z,9.01
2023-04-30T04:05:12.719Z,9.03
2023-04-30T04:07:39.296Z,9.09
2023-04-30T04:10:06.475Z,9.14
2023-04-30T04:12:33.006Z,9.18
2023-04-30T04:14:59.470Z,9.19
2023-04-30T04:17:26.054Z,9.22
2023-04-30T04:19:53.005Z,9.25
2023-04-30T04:22:19.622Z,9.22
2023-04-30T04:24:46.133Z,9.26
2023-04-30T04:27:12.767Z,9.27
2023-04-30T04:29:39.226Z,9.18
2023-04-30T04:32:05.942Z,9.24
2023-04-30T04:34:33.069Z,9.21
2023-04-30T04:36:59.515Z,9.21
2023-04-30T04:39:25.968Z,9.26
2023-04-30T04:41:52.953Z,9.26
2023-04-30T04:44:19.561Z,9.30
2023-04-30T04:46:46.189Z,9.32
2023-04-30T04:49:13.142Z,9.35
2023-04-30T04:51:39.714Z,9.38
2023-04-30T04:54:06.299Z,9.50
2023-04-30T04:56:33.404Z,9.44
2023-04-30T04:58:59.879Z,9.44
2023-04-30T05:01:26.892Z,9.50
2023-04-30T05:03:54.303Z,9.49
2023-04-30T05:06:21.234Z,9.50
2023-04-30T05:08:47.718Z,9.60
2023-04-30T05:11:15.845Z,9.58
2023-04-30T05:13:42.605Z,9.62
2023-04-30T05:16:09.099Z,9.61
2023-04-30T05:18:35.733Z,9.69
2023-04-30T05:21:02.213Z,9.66
2023-04-30T05:23:28.698Z,9.62
2023-04-30T05:25:55.533Z,9.70
2023-04-30T05:28:22.025Z,9.87
2023-04-30T05:30:48.477Z,9.80
2023-04-30T05:33:15.010Z,9.96
2023-04-30T05:35:41.898Z,9.94
2023-04-30T05:38:08.362Z,9.97
2023-04-30T05:40:34.906Z,10.10
2023-04-30T05:43:01.446Z,9.99
2023-04-30T05:45:27.952Z,9.96
2023-04-30T05:47:54.562Z,9.98
2023-04-30T05:50:21.101Z,9.83
2023-04-30T05:52:47.584Z,9.78
2023-04-30T05:55:14.122Z,9.76
2023-04-30T05:57:40.585Z,9.71
2023-04-30T06:00:07.657Z,9.68
2023-04-30T06:02:34.305Z,9.78
2023-04-30T06:05:02.977Z,9.78
2023-04-30T06:07:29.489Z,9.86
2023-04-30T06:09:56.409Z,9.96
2023-04-30T06:12:23.302Z,10.07
2023-04-30T06:14:49.774Z,10.19
2023-04-30T06:17:16.646Z,10.32
2023-04-30T06:19:43.163Z,10.20
2023-04-30T06:22:09.625Z,10.26
2023-04-30T06:24:36.420Z,10.19
2023-04-30T06:27:03.398Z,10.33
2023-04-30T06:29:29.940Z,10.49
2023-04-30T06:31:56.594Z,10.50
2023-04-30T06:34:23.107Z,10.70
2023-04-30T06:36:49.556Z,10.63
2023-04-30T06:39:16.171Z,10.68
2023-04-30T06:41:42.725Z,10.72
2023-04-30T06:44:09.384Z,10.68
2023-04-30T06:46:35.874Z,10.89
2023-04-30T06:49:02.438Z,10.93
2023-04-30T06:51:28.912Z,11.01
2023-04-30T06:53:56.122Z,11.02
2023-04-30T06:56:22.661Z,11.12
2023-04-30T06:58:50.298Z,11.16
2023-04-30T07:01:17.633Z,11.32
2023-04-30T07:03:44.338Z,11.41
2023-04-30T07:06:11.047Z,11.49
2023-04-30T07:08:38.895Z,11.65
2023-04-30T07:11:05.351Z,11.63
2023-04-30T07:13:31.840Z,11.73
2023-04-30T07:15:59.504Z,11.87
2023-04-30T07:18:27.341Z,11.79
2023-04-30T07:20:53.908Z,11.76
2023-04-30T07:23:21.023Z,11.84
2023-04-30T07:25:47.530Z,12.21
2023-04-30T07:28:14.199Z,12.15
2023-04-30T07:30:41.013Z,11.99
2023-04-30T07:33:08.916Z,12.32
2023-04-30T07:35:35.451Z,12.15
2023-04-30T07:38:01.934Z,12.18
2023-04-30T07:40:35.897Z,12.33
2023-04-30T07:43:04.629Z,12.76
2023-04-30T07:45:31.861Z,13.66
2023-04-30T07:47:58.413Z,13.24
2023-04-30T07:50:24.976Z,13.56
2023-04-30T07:52:51.464Z,13.77
2023-04-30T07:55:18.014Z,14.14
2023-04-30T07:57:44.537Z,13.65
2023-04-30T08:00:11.669Z,14.16
2023-04-30T08:02:38.328Z,14.22
2023-04-30T08:05:05.859Z,14.81
2023-04-30T08:07:32.383Z,14.13
2023-04-30T08:09:58.897Z,14.12
2023-04-30T08:12:25.604Z,13.96
2023-04-30T08:15:08.075Z,13.38
2023-04-30T08:17:34.678Z,13.25
2023-04-30T08:20:01.906Z,13.55
2023-04-30T08:22:28.484Z,13.39
2023-04-30T08:24:55.812Z,13.47
2023-04-30T08:27:23.053Z,13.55
2023-04-30T08:29:49.523Z,13.96
2023-04-30T08:32:16.258Z,14.04
2023-04-30T08:34:43.524Z,13.65
2023-04-30T08:37:10.223Z,13.57
2023-04-30T08:39:36.754Z,13.95
2023-04-30T08:42:04.167Z,14.51
2023-04-30T08:44:30.739Z,14.37
2023-04-30T08:46:58.329Z,14.88
2023-04-30T08:49:25.267Z,14.78
2023-04-30T08:51:52.055Z,14.93
2023-04-30T08:54:18.858Z,15.19
2023-04-30T08:56:45.865Z,15.51
2023-04-30T08:59:12.816Z,15.55
2023-04-30T09:01:39.416Z,15.79
2023-04-30T09:04:06.355Z,15.10
2023-04-30T09:06:32.929Z,15.43
2023-04-30T09:08:59.445Z,15.07
2023-04-30T09:11:32.065Z,14.86
2023-04-30T09:13:58.935Z,15.15
2023-04-30T09:16:26.847Z,15.02
2023-04-30T09:18:53.446Z,14.50
2023-04-30T09:21:38.333Z,14.61
2023-04-30T09:24:05.466Z,14.79
2023-04-30T09:26:33.824Z,14.82
2023-04-30T09:29:00.840Z,14.57
2023-04-30T09:31:27.843Z,14.86
2023-04-30T09:33:54.416Z,14.79
2023-04-30T09:36:21.376Z,14.83
2023-04-30T09:38:47.925Z,14.83
2023-04-30T09:41:28.288Z,15.15
2023-04-30T09:43:55.326Z,15.54
2023-04-30T09:46:22.554Z,15.13
2023-04-30T09:48:59.245Z,15.19
2023-04-30T09:51:26.955Z,15.00
2023-04-30T09:53:53.972Z,15.01
2023-04-30T09:56:22.412Z,14.60
2023-04-30T09:58:56.146Z,14.63
2023-04-30T10:01:26.313Z,14.74
2023-04-30T10:03:53.138Z,15.34
2023-04-30T10:06:21.403Z,15.82
2023-04-30T10:08:49.480Z,15.95
2023-04-30T10:11:19.681Z,15.94
2023-04-30T10:13:52.758Z,15.63
2023-04-30T10:16:28.069Z,15.40
2023-04-30T10:18:54.711Z,15.59
2023-04-30T10:21:22.759Z,16.36
2023-04-30T10:23:49.291Z,16.34
2023-04-30T10:26:16.978Z,16.89
2023-04-30T10:28:43.471Z,17.10
2023-04-30T10:31:13.118Z,17.15
2023-04-30T10:34:17.692Z,16.79
2023-04-30T10:36:49.197Z,16.32
2023-04-30T10:39:18.813Z,16.36
2023-04-30T10:41:47.037Z,15.71
2023-04-30T10:44:13.627Z,15.87
2023-04-30T10:46:40.444Z,16.81
2023-04-30T10:49:07.712Z,16.70
2023-04-30T10:51:48.138Z,15.86
2023-04-30T10:54:17.541Z,15.89
2023-04-30T10:56:44.790Z,15.91
2023-04-30T10:59:12.036Z,15.89
2023-04-30T11:01:58.160Z,15.98
2023-04-30T11:04:25.276Z,16.48
2023-04-30T11:06:55.650Z,16.83
2023-04-30T11:09:46.051Z,16.56
2023-04-30T11:12:12.400Z,16.01
2023-04-30T11:14:43.291Z,15.88
2023-04-30T11:17:13.442Z,15.69
2023-04-30T11:19:47.172Z,16.61
2023-04-30T11:22:13.564Z,16.31
2023-04-30T11:25:05.605Z,16.77
2023-04-30T11:27:33.549Z,17.60
2023-04-30T11:30:00.209Z,17.33
2023-04-30T11:32:34.853Z,17.37
2023-04-30T11:35:04.930Z,17.96
2023-04-30T11:37:32.514Z,18.15
2023-04-30T11:40:07.797Z,18.42
2023-04-30T11:42:39.191Z,17.71
2023-04-30T11:45:07.585Z,18.50
2023-04-30T11:47:49.087Z,18.22
2023-04-30T11:50:19.836Z,18.28
2023-04-30T11:52:50.371Z,18.24
2023-04-30T11:55:17.922Z,18.13
2023-04-30T11:57:45.256Z,18.39
2023-04-30T12:00:12.988Z,18.63
2023-04-30T12:02:40.064Z,18.77
2023-04-30T12:05:13.714Z,18.33
2023-04-30T12:07:40.514Z,18.86
2023-04-30T12:10:07.974Z,18.20
2023-04-30T12:12:36.892Z,17.60
2023-04-30T12:15:13.721Z,18.16
2023-04-30T12:17:40.338Z,18.78
2023-04-30T12:20:08.662Z,19.49
2023-04-30T12:22:35.300Z,18.78
2023-04-30T12:25:15.357Z,18.82
2023-04-30T12:27:42.947Z,18.85
2023-04-30T12:30:09.854Z,18.55
2023-04-30T12:32:46.105Z,19.36
2023-04-30T12:35:17.121Z,20.11
2023-04-30T12:37:53.723Z,20.39
2023-04-30T12:40:21.736Z,20.71
2023-04-30T12:42:48.376Z,19.80
2023-04-30T12:45:45.508Z,20.55
2023-04-30T12:48:12.308Z,20.92
2023-04-30T12:50:39.339Z,20.34
2023-04-30T12:53:07.547Z,19.09
2023-04-30T12:55:39.080Z,19.82
2023-04-30T12:58:10.050Z,20.24
2023-04-30T13:00:52.064Z,20.64
2023-04-30T13:03:20.082Z,21.39
2023-04-30T13:05:48.411Z,21.04
2023-04-30T13:08:14.979Z,19.99
2023-04-30T13:10:41.677Z,18.74
2023-04-30T13:13:08.150Z,19.59
2023-04-30T13:15:35.064Z,20.36
2023-04-30T13:18:01.701Z,21.34
2023-04-30T13:20:28.236Z,20.38
2023-04-30T13:22:54.697Z,20.34
2023-04-30T13:25:22.271Z,19.07
2023-04-30T13:27:48.806Z,19.45
2023-04-30T13:30:15.460Z,18.06
2023-04-30T13:32:43.196Z,18.27
2023-04-30T13:35:10.304Z,17.99
2023-04-30T13:37:36.860Z,18.74
2023-04-30T13:40:04.032Z,17.97
2023-04-30T13:42:30.632Z,18.07
2023-04-30T13:44:57.175Z,18.29
2023-04-30T13:47:23.926Z,19.41
2023-04-30T13:49:50.379Z,19.37
2023-04-30T13:52:16.848Z,20.35
2023-04-30T13:54:43.463Z,19.82
2023-04-30T13:57:10.387Z,19.14
2023-04-30T13:59:37.054Z,20.73
2023-04-30T14:02:03.652Z,21.49
2023-04-30T14:04:31.185Z,22.25
2023-04-30T14:06:57.680Z,20.53
2023-04-30T14:09:24.303Z,19.72
2023-04-30T14:11:51.234Z,18.23
2023-04-30T14:14:17.749Z,17.48
2023-04-30T14:16:44.846Z,19.93
2023-04-30T14:19:11.456Z,21.58
2023-04-30T14:21:37.938Z,21.80
2023-04-30T14:24:04.972Z,22.03
2023-04-30T14:26:31.517Z,19.82
2023-04-30T14:28:58.140Z,19.09
2023-04-30T14:31:25.072Z,20.69
2023-04-30T14:33:51.585Z,18.32
2023-04-30T14:36:18.071Z,17.65
2023-04-30T14:38:44.613Z,17.59
2023-04-30T14:41:12.496Z,18.18
2023-04-30T14:43:39.699Z,17.67
2023-04-30T14:46:06.745Z,17.58
2023-04-30T14:48:33.552Z,19.18
2023-04-30T14:51:01.276Z,20.18
2023-04-30T14:53:27.918Z,20.09
2023-04-30T14:55:54.387Z,20.95
2023-04-30T14:58:20.962Z,20.59
2023-04-30T15:00:48.375Z,20.99
2023-04-30T15:03:14.996Z,20.75
2023-04-30T15:05:41.529Z,18.21
2023-04-30T15:08:08.124Z,18.46
2023-04-30T15:10:34.775Z,17.82
2023-04-30T15:13:03.099Z,18.38
2023-04-30T15:15:29.829Z,18.05
2023-04-30T15:18:00.376Z,17.46
2023-04-30T15:20:27.121Z,17.69
2023-04-30T15:22:56.745Z,17.18
2023-04-30T15:25:24.139Z,17.25
2023-04-30T15:27:53.574Z,17.68
2023-04-30T15:30:21.839Z,17.73
2023-04-30T15:32:50.091Z,18.21
2023-04-30T15:35:17.079Z,17.83
2023-04-30T15:37:45.263Z,17.57
2023-04-30T15:40:15.138Z,17.89
2023-04-30T15:42:41.994Z,17.16
2023-04-30T15:45:09.729Z,17.73
2023-04-30T15:47:41.138Z,17.91
2023-04-30T15:50:08.230Z,18.29
2023-04-30T15:52:34.870Z,18.25
2023-04-30T15:55:01.471Z,18.39
2023-04-30T15:57:28.223Z,17.58
2023-04-30T15:59:55.032Z,18.11
2023-04-30T16:02:21.908Z,17.61
2023-04-30T16:04:48.423Z,17.34
2023-04-30T16:07:14.932Z,17.67
2023-04-30T16:09:45.515Z,17.68
2023-04-30T16:12:12.558Z,17.56
2023-04-30T16:14:39.124Z,17.50
2023-04-30T16:17:05.718Z,17.67
2023-04-30T16:19:32.467Z,17.26
2023-04-30T16:22:00.697Z,16.97
2023-04-30T16:24:27.710Z,17.12
2023-04-30T16:26:54.217Z,17.16
2023-04-30T16:29:20.801Z,16.71
2023-04-30T16:31:47.883Z,17.23
2023-04-30T16:34:14.501Z,17.25
2023-04-30T16:36:41.013Z,16.61
2023-04-30T16:39:07.487Z,16.29
2023-04-30T16:41:33.970Z,16.23
2023-04-30T16:44:00.786Z,16.18
2023-04-30T16:46:27.999Z,16.11
2023-04-30T16:48:54.539Z,16.17
2023-04-30T16:51:21.077Z,16.58
2023-04-30T16:53:47.557Z,16.99
2023-04-30T16:56:14.055Z,16.79
2023-04-30T16:58:40.786Z,16.94
2023-04-30T17:01:07.290Z,16.79
2023-04-30T17:03:37.047Z,17.04
2023-04-30T17:06:05.234Z,16.82
2023-04-30T17:08:31.814Z,16.35
2023-04-30T17:10:58.291Z,16.09
2023-04-30T17:13:24.859Z,15.91
2023-04-30T17:15:51.457Z,15.82
2023-04-30T17:18:18.267Z,15.77
2023-04-30T17:20:46.823Z,15.54
2023-04-30T17:23:13.313Z,15.43
2023-04-30T17:25:39.761Z,15.38
2023-04-30T17:28:06.346Z,15.27
2023-04-30T17:30:32.806Z,14.86
2023-04-30T17:33:00.440Z,14.92
2023-04-30T17:35:27.468Z,14.94
2023-04-30T17:37:54.458Z,15.12
2023-04-30T17:40:20.921Z,15.20
2023-04-30T17:42:47.461Z,14.99
2023-04-30T17:45:13.916Z,14.65
2023-04-30T17:47:40.442Z,14.60
2023-04-30T17:50:08.534Z,14.54
2023-04-30T17:52:38.316Z,14.48
2023-04-30T17:55:08.352Z,14.42
2023-04-30T17:57:35.153Z,14.45
2023-04-30T18:00:01.814Z,14.53
2023-04-30T18:02:29.041Z,14.41
2023-04-30T18:04:55.635Z,14.35
2023-04-30T18:07:22.085Z,14.34
2023-04-30T18:09:48.614Z,14.28
2023-04-30T18:12:15.311Z,14.17
2023-04-30T18:14:41.804Z,14.13
2023-04-30T18:17:08.364Z,14.10
2023-04-30T18:19:38.623Z,13.96
2023-04-30T18:22:05.208Z,13.70
2023-04-30T18:24:32.232Z,13.49
2023-04-30T18:26:58.776Z,13.38
2023-04-30T18:29:25.741Z,13.33
2023-04-30T18:31:52.547Z,12.86
2023-04-30T18:34:19.216Z,12.99
2023-04-30T18:36:45.670Z,13.23
2023-04-30T18:39:12.418Z,13.10
2023-04-30T18:41:38.886Z,12.44
2023-04-30T18:44:05.765Z,12.14
2023-04-30T18:46:32.266Z,11.88
2023-04-30T18:48:58.743Z,11.48
2023-04-30T18:51:25.431Z,11.46
2023-04-30T18:53:52.555Z,11.30
2023-04-30T18:56:19.525Z,11.12
2023-04-30T18:58:47.595Z,10.99
2023-04-30T19:01:14.301Z,11.01
2023-04-30T19:03:41.511Z,10.57
2023-04-30T19:06:08.248Z,10.37
2023-04-30T19:08:34.800Z,10.02
2023-04-30T19:11:01.323Z,10.13
2023-04-30T19:13:27.777Z,10.01
2023-04-30T19:15:54.350Z,9.96
2023-04-30T19:18:21.133Z,9.70
2023-04-30T19:21:00.994Z,9.69
2023-04-30T19:23:31.520Z,9.95
2023-04-30T19:25:58.804Z,9.85
2023-04-30T19:28:25.584Z,9.70
2023-04-30T19:30:55.652Z,9.56
2023-04-30T19:33:22.747Z,9.80
2023-04-30T19:35:50.723Z,9.51
2023-04-30T19:38:17.477Z,9.78
2023-04-30T19:40:52.017Z,9.80
2023-04-30T19:43:19.038Z,9.59
2023-04-30T19:45:58.218Z,9.57
2023-04-30T19:48:25.614Z,9.24
2023-04-30T19:50:53.600Z,9.22
2023-04-30T19:53:21.387Z,8.94
2023-04-30T19:55:47.934Z,9.04
2023-04-30T19:58:14.418Z,9.23
2023-04-30T20:00:42.481Z,8.74
2023-04-30T20:03:09.100Z,9.11
2023-04-30T20:05:36.155Z,8.85
2023-04-30T20:08:06.697Z,8.68
2023-04-30T20:10:34.761Z,8.90
2023-04-30T20:13:01.268Z,8.57
2023-04-30T20:15:27.965Z,8.42
2023-04-30T20:17:54.456Z,8.35
2023-04-30T20:20:23.656Z,8.41
2023-04-30T20:22:51.779Z,8.24
2023-04-30T20:25:18.711Z,8.00
2023-04-30T20:27:45.182Z,7.90
2023-04-30T20:30:13.227Z,8.00
2023-04-30T20:32:40.287Z,7.94
2023-04-30T20:35:07.383Z,8.10
2023-04-30T20:37:34.715Z,8.54
2023-04-30T20:40:01.417Z,8.53
2023-04-30T20:42:28.004Z,7.99
2023-04-30T20:44:55.221Z,7.95
2023-04-30T20:47:22.032Z,7.99
2023-04-30T20:49:48.493Z,7.98
2023-04-30T20:52:15.376Z,7.94
2023-04-30T20:54:41.913Z,7.66
2023-04-30T20:57:08.935Z,7.87
2023-04-30T20:59:35.986Z,7.67
2023-04-30T21:02:03.499Z,7.57
2023-04-30T21:04:30.931Z,7.63
2023-04-30T21:06:57.758Z,7.52
2023-04-30T21:09:24.208Z,7.56
2023-04-30T21:11:50.692Z,7.42
2023-04-30T21:14:17.570Z,7.89
2023-04-30T21:16:44.619Z,7.64
2023-04-30T21:19:11.175Z,7.46
2023-04-30T21:21:37.700Z,7.44
2023-04-30T21:24:05.141Z,7.19
2023-04-30T21:26:31.758Z,7.10
2023-04-30T21:28:58.406Z,7.25
2023-04-30T21:31:25.020Z,7.05
2023-04-30T21:33:51.538Z,7.22
2023-04-30T21:36:18.285Z,6.95
2023-04-30T21:38:44.890Z,6.98
2023-04-30T21:41:17.360Z,7.50
2023-04-30T21:43:43.985Z,7.32
2023-04-30T21:46:10.888Z,7.30
2023-04-30T21:48:40.430Z,6.98
2023-04-30T21:51:15.017Z,7.06
2023-04-30T21:53:41.993Z,7.44
2023-04-30T21:56:08.934Z,7.62
2023-04-30T21:58:35.768Z,7.58
2023-04-30T22:01:04.117Z,7.39
2023-04-30T22:03:31.489Z,7.34
2023-04-30T22:05:58.385Z,7.38
2023-04-30T22:08:25.004Z,7.44
2023-04-30T22:10:58.875Z,7.44
2023-04-30T22:13:26.178Z,7.46
2023-04-30T22:15:52.739Z,7.29
2023-04-30T22:18:19.865Z,7.08
2023-04-30T22:20:48.680Z,6.78
2023-04-30T22:23:15.687Z,6.40
2023-04-30T22:25:42.249Z,6.61
2023-04-30T22:28:10.095Z,7.06
2023-04-30T22:30:37.646Z,7.03
2023-04-30T22:33:04.289Z,7.09
2023-04-30T22:35:30.992Z,7.03
2023-04-30T22:37:57.479Z,7.04
2023-04-30T22:40:23.942Z,7.03
2023-04-30T22:42:50.451Z,7.09
2023-04-30T22:45:16.962Z,6.93
2023-04-30T22:47:45.535Z,6.82
2023-04-30T22:50:12.073Z,6.93
2023-04-30T22:52:38.568Z,6.97
2023-04-30T22:55:05.631Z,6.75
2023-04-30T22:57:32.151Z,6.31
2023-04-30T22:59:59.322Z,6.26
2023-04-30T23:02:26.373Z,6.43
2023-04-30T23:04:52.897Z,6.72
2023-04-30T23:07:19.377Z,6.65
2023-04-30T23:09:45.908Z,6.71
2023-04-30T23:12:12.480Z,6.61
2023-04-30T23:14:38.931Z,6.49
2023-04-30T23:17:05.876Z,6.59
2023-04-30T23:19:33.069Z,6.43
2023-04-30T23:21:59.564Z,6.39
2023-04-30T23:24:26.270Z,6.34
2023-04-30T23:26:52.793Z,6.35
2023-04-30T23:29:19.243Z,6.35
2023-04-30T23:31:45.832Z,6.29
2023-04-30T23:34:12.733Z,6.31
2023-04-30T23:36:40.115Z,6.29
2023-04-30T23:39:06.721Z,5.98
2023-04-30T23:41:33.174Z,6.10
2023-04-30T23:43:59.666Z,6.25
2023-04-30T23:46:26.603Z,6.26
2023-04-30T23:48:53.096Z,6.11
2023-04-30T23:51:21.418Z,5.97
2023-04-30T23:53:48.112Z,6.15
2023-04-30T23:56:14.609Z,6.03
2023-04-30T23:58:41.051Z,5.98
